Time;durP1;ratioP1;P1;durP2;ratioP2;P2;SDS_P1;SDS_P2;PMS_P1;PMS_P2;Temp;Humidity;BMP_temperature;BMP_pressure;BME280_temperature;BME280_humidity;BME280_pressure;Samples;Min_cycle;Max_cycle;Signal;HPM_P1;HPM_P2
2022/06/25 00:01:10;;;;;;;7.50;4.90;;;18.50;99.90;;;;;;4996218;28;20204;-74
2022/06/25 00:03:38;;;;;;;6.73;4.93;;;18.50;99.90;;;;;;4996320;28;20282;-72
2022/06/25 00:06:06;;;;;;;7.17;5.40;;;18.50;99.90;;;;;;5013808;28;20627;-74
2022/06/25 00:08:35;;;;;;;7.90;5.30;;;18.40;99.90;;;;;;4996034;28;20189;-74
2022/06/25 00:11:03;;;;;;;9.73;5.00;;;18.40;99.90;;;;;;4996014;28;20192;-74
2022/06/25 00:13:30;;;;;;;10.47;5.67;;;18.40;99.90;;;;;;5013409;28;20362;-75
2022/06/25 00:15:57;;;;;;;8.43;5.57;;;18.40;99.90;;;;;;5013343;28;20618;-74
2022/06/25 00:18:26;;;;;;;7.57;5.23;;;18.30;99.90;;;;;;4995533;28;20324;-74
2022/06/25 00:20:53;;;;;;;6.27;5.10;;;18.30;99.90;;;;;;4996731;28;20196;-75
2022/06/25 00:23:20;;;;;;;9.60;5.43;;;18.30;99.90;;;;;;4995746;28;20208;-74
2022/06/25 00:25:47;;;;;;;13.00;5.53;;;18.20;99.90;;;;;;4995749;28;20196;-74
2022/06/25 00:28:14;;;;;;;7.80;5.80;;;18.20;99.90;;;;;;4979962;28;20223;-75
2022/06/25 00:30:40;;;;;;;12.23;5.57;;;18.10;99.90;;;;;;4979398;28;20577;-75
2022/06/25 00:33:07;;;;;;;9.57;5.70;;;18.10;99.90;;;;;;4995556;28;20631;-76
2022/06/25 00:35:34;;;;;;;7.03;5.70;;;18.00;99.90;;;;;;4995594;28;20203;-74
2022/06/25 00:38:01;;;;;;;8.63;5.73;;;18.00;99.90;;;;;;4995705;28;20707;-74
2022/06/25 00:40:28;;;;;;;7.47;5.83;;;17.90;99.90;;;;;;4995638;28;20235;-75
2022/06/25 00:42:55;;;;;;;10.80;5.97;;;17.90;99.90;;;;;;4995570;28;20282;-76
2022/06/25 00:45:22;;;;;;;10.00;5.87;;;17.80;99.90;;;;;;4996639;28;20200;-74
2022/06/25 00:47:49;;;;;;;7.90;5.50;;;17.80;99.90;;;;;;4995497;28;20204;-75
2022/06/25 00:50:16;;;;;;;9.53;5.67;;;17.80;99.90;;;;;;5013360;28;20211;-73
2022/06/25 00:52:47;;;;;;;9.73;6.10;;;17.80;99.90;;;;;;4995641;28;20239;-75
2022/06/25 00:55:16;;;;;;;8.07;6.30;;;17.70;99.90;;;;;;4995265;28;20290;-74
2022/06/25 00:57:44;;;;;;;10.03;6.03;;;17.70;99.90;;;;;;4979357;28;20302;-75
2022/06/25 01:00:17;;;;;;;7.73;5.90;;;17.60;99.90;;;;;;4996792;28;20319;-75
2022/06/25 01:02:45;;;;;;;8.50;6.13;;;17.60;99.90;;;;;;5016922;28;20258;-75
2022/06/25 01:05:13;;;;;;;8.77;6.23;;;17.50;99.90;;;;;;4999069;28;20300;-75
2022/06/25 01:07:45;;;;;;;8.13;6.50;;;17.50;99.90;;;;;;4999175;28;20665;-74
2022/06/25 01:10:13;;;;;;;8.17;6.43;;;17.40;99.90;;;;;;4999153;28;20299;-74
2022/06/25 01:12:40;;;;;;;14.80;6.70;;;17.40;99.90;;;;;;4999296;28;20200;-71
2022/06/25 01:15:13;;;;;;;11.67;6.63;;;17.30;99.90;;;;;;4998367;28;20295;-74
2022/06/25 01:17:44;;;;;;;13.27;7.53;;;17.30;99.90;;;;;;5016966;28;20200;-74
2022/06/25 01:20:13;;;;;;;9.27;6.63;;;17.20;99.90;;;;;;4998890;28;20262;-74
2022/06/25 01:22:40;;;;;;;10.03;6.37;;;17.20;99.90;;;;;;4999055;28;20235;-73
2022/06/25 01:25:10;;;;;;;12.53;7.40;;;17.10;99.90;;;;;;4999145;28;20200;-70
2022/06/25 01:27:38;;;;;;;9.47;6.90;;;17.10;99.90;;;;;;4998672;28;20702;-74
2022/06/25 01:30:09;;;;;;;8.67;6.50;;;17.00;99.90;;;;;;4998686;28;20283;-74
2022/06/25 01:32:36;;;;;;;8.47;6.77;;;17.00;99.90;;;;;;5016199;28;20279;-73
2022/06/25 01:35:04;;;;;;;11.50;7.00;;;17.00;99.90;;;;;;4998860;28;20232;-74
2022/06/25 01:37:32;;;;;;;9.50;6.57;;;16.90;99.90;;;;;;4998570;28;20629;-74
2022/06/25 01:40:00;;;;;;;9.83;6.43;;;16.90;99.90;;;;;;4998700;28;20220;-74
2022/06/25 01:45:13;;;;;;;9.80;6.53;;;16.90;99.90;;;;;;4998631;28;20196;-73
2022/06/25 01:47:40;;;;;;;9.50;6.50;;;16.90;99.90;;;;;;4998564;28;20295;-74
2022/06/25 01:50:08;;;;;;;8.30;6.27;;;16.90;99.90;;;;;;5016553;28;20200;-73
2022/06/25 01:52:35;;;;;;;9.00;6.30;;;16.90;99.90;;;;;;5015978;28;20660;-73
2022/06/25 01:55:03;;;;;;;7.33;5.80;;;16.80;99.90;;;;;;4998648;28;20204;-73
2022/06/25 01:57:30;;;;;;;10.97;6.80;;;16.80;99.90;;;;;;4998503;28;20581;-73
2022/06/25 01:59:57;;;;;;;14.60;6.60;;;16.80;99.90;;;;;;4998220;28;20247;-73
2022/06/25 02:02:24;;;;;;;6.80;6.03;;;16.80;99.90;;;;;;4998206;28;20351;-73
2022/06/25 02:04:52;;;;;;;11.10;6.43;;;16.80;99.90;;;;;;5015588;28;20391;-72
2022/06/25 02:07:18;;;;;;;8.10;6.47;;;16.80;99.90;;;;;;5015708;28;20267;-74
2022/06/25 02:09:45;;;;;;;6.50;5.80;;;16.80;99.90;;;;;;5015483;28;20250;-74
2022/06/25 02:12:12;;;;;;;9.97;6.07;;;16.80;99.90;;;;;;5016889;28;20224;-71
2022/06/25 02:14:39;;;;;;;8.53;6.17;;;16.80;99.90;;;;;;4998685;28;20193;-74
2022/06/25 02:17:07;;;;;;;9.43;5.90;;;16.80;99.90;;;;;;4998067;28;20222;-74
2022/06/25 02:19:34;;;;;;;10.03;6.43;;;16.70;99.90;;;;;;5015975;28;20331;-70
2022/06/25 02:22:01;;;;;;;10.30;6.20;;;16.70;99.90;;;;;;4997883;28;20206;-73
2022/06/25 02:24:28;;;;;;;8.97;6.10;;;16.70;99.90;;;;;;4997492;28;20235;-73
2022/06/25 02:26:55;;;;;;;7.73;6.20;;;16.70;99.90;;;;;;5015358;28;20208;-74
2022/06/25 02:29:22;;;;;;;8.93;5.97;;;16.70;99.90;;;;;;4997746;28;20565;-74
2022/06/25 02:31:49;;;;;;;9.53;6.27;;;16.60;99.90;;;;;;4997741;28;20303;-73
2022/06/25 02:34:16;;;;;;;9.03;6.10;;;16.60;99.90;;;;;;5015207;28;20664;-74
2022/06/25 02:36:43;;;;;;;7.43;6.00;;;16.60;99.90;;;;;;5015335;28;20259;-74
2022/06/25 02:39:10;;;;;;;7.70;5.83;;;16.60;99.90;;;;;;4997288;28;20656;-74
2022/06/25 02:41:37;;;;;;;8.43;5.40;;;16.60;99.90;;;;;;4997381;28;20287;-74
2022/06/25 02:44:04;;;;;;;9.37;6.20;;;16.70;99.90;;;;;;5014984;28;20196;-73
2022/06/25 02:46:31;;;;;;;6.60;5.37;;;16.70;99.90;;;;;;5015066;28;20283;-72
2022/06/25 02:48:58;;;;;;;8.17;5.80;;;16.80;99.90;;;;;;4997360;28;20200;-73
2022/06/25 02:51:25;;;;;;;6.93;6.00;;;16.80;99.90;;;;;;4981382;28;20206;-73
2022/06/25 02:53:51;;;;;;;8.87;5.87;;;16.70;99.90;;;;;;4996875;28;20227;-72
2022/06/25 02:59:05;;;;;;;7.83;5.57;;;16.80;99.90;;;;;;4997052;28;20220;-73
2022/06/25 03:01:32;;;;;;;8.07;5.40;;;16.80;99.90;;;;;;4997007;28;20238;-73
2022/06/25 03:04:00;;;;;;;8.47;6.00;;;16.80;99.90;;;;;;4996790;28;20677;-73
2022/06/25 03:06:27;;;;;;;7.27;5.73;;;16.80;99.90;;;;;;5014931;28;20192;-74
2022/06/25 03:08:54;;;;;;;7.97;5.47;;;16.80;99.90;;;;;;4997048;28;20284;-73
2022/06/25 03:11:21;;;;;;;7.03;5.60;;;16.80;99.90;;;;;;4997578;28;20200;-73
2022/06/25 03:13:48;;;;;;;8.27;6.20;;;16.90;99.90;;;;;;4980921;28;20196;-73
2022/06/25 03:16:15;;;;;;;8.80;6.07;;;16.90;99.90;;;;;;4996576;28;20660;-73
2022/06/25 03:18:42;;;;;;;9.40;6.00;;;16.90;99.90;;;;;;4996735;28;20653;-73
2022/06/25 03:21:09;;;;;;;9.13;6.30;;;16.90;99.90;;;;;;4996510;28;20633;-73
2022/06/25 03:23:36;;;;;;;7.70;5.73;;;17.00;99.90;;;;;;4995854;28;20228;-73
2022/06/25 03:26:03;;;;;;;10.37;5.70;;;17.00;99.90;;;;;;5014167;28;20192;-73
2022/06/25 03:28:30;;;;;;;8.03;5.57;;;17.10;99.90;;;;;;4997249;28;20291;-73
2022/06/25 03:30:56;;;;;;;7.67;5.70;;;17.10;99.90;;;;;;4996767;28;20215;-72
2022/06/25 03:33:24;;;;;;;6.90;5.73;;;17.20;99.90;;;;;;4996557;28;20196;-73
2022/06/25 03:35:50;;;;;;;6.97;5.70;;;17.20;99.90;;;;;;4996196;28;20192;-74
2022/06/25 03:38:17;;;;;;;7.60;5.90;;;17.20;99.90;;;;;;5014061;28;20216;-73
2022/06/25 03:40:44;;;;;;;7.03;5.50;;;17.30;99.90;;;;;;5014138;28;20551;-74
2022/06/25 03:43:11;;;;;;;9.23;5.60;;;17.30;99.90;;;;;;4996696;28;20295;-74
2022/06/25 03:45:38;;;;;;;8.27;6.00;;;17.40;99.90;;;;;;4996065;28;20291;-73
2022/06/25 03:48:05;;;;;;;6.53;5.40;;;17.50;99.90;;;;;;4996277;28;20562;-72
2022/06/25 03:50:33;;;;;;;7.00;5.60;;;17.60;99.90;;;;;;5013717;28;20298;-73
2022/06/25 03:53:00;;;;;;;7.97;5.30;;;17.60;99.90;;;;;;4996113;28;20200;-72
2022/06/25 03:55:27;;;;;;;6.20;5.53;;;17.60;99.90;;;;;;5013621;28;20284;-73
2022/06/25 03:58:14;;;;;;;6.70;5.20;;;17.70;99.90;;;;;;4996380;28;20235;-72
2022/06/25 04:00:42;;;;;;;8.23;5.30;;;17.80;99.90;;;;;;5013410;28;20359;-73
2022/06/25 04:03:08;;;;;;;6.33;5.37;;;17.80;99.90;;;;;;5013323;28;20689;-73
2022/06/25 04:05:35;;;;;;;6.37;5.37;;;17.90;99.90;;;;;;4995690;28;20255;-72
2022/06/25 04:08:02;;;;;;;5.77;4.90;;;18.00;99.90;;;;;;4995793;28;20294;-73
2022/06/25 04:10:29;;;;;;;6.83;5.30;;;18.00;99.90;;;;;;4996099;28;20195;-73
2022/06/25 04:13:01;;;;;;;7.03;5.40;;;18.10;99.90;;;;;;5013613;28;20184;-72
2022/06/25 04:15:28;;;;;;;7.77;5.43;;;18.10;99.90;;;;;;5013332;28;20192;-73
2022/06/25 04:17:56;;;;;;;6.03;5.20;;;18.20;99.90;;;;;;5013887;28;20195;-74
2022/06/25 04:20:22;;;;;;;7.90;5.03;;;18.20;99.90;;;;;;4995597;28;20226;-73
2022/06/25 04:22:49;;;;;;;7.37;5.17;;;18.20;99.90;;;;;;5013404;28;20199;-73
2022/06/25 04:25:16;;;;;;;6.00;5.13;;;18.30;99.90;;;;;;4995696;28;20299;-73
2022/06/25 04:30:28;;;;;;;6.43;4.97;;;18.50;99.90;;;;;;4995594;28;20184;-73
2022/06/25 04:32:55;;;;;;;6.37;5.30;;;18.60;99.90;;;;;;5013525;28;20192;-72
2022/06/25 04:35:22;;;;;;;7.63;5.57;;;18.70;99.90;;;;;;4995367;28;20294;-73
2022/06/25 04:37:49;;;;;;;9.40;6.17;;;18.70;99.90;;;;;;4995843;28;20287;-73
2022/06/25 04:40:17;;;;;;;7.73;5.77;;;18.70;99.90;;;;;;4995536;28;20238;-73
2022/06/25 04:42:44;;;;;;;8.27;5.90;;;18.80;99.90;;;;;;4995400;28;20206;-73
2022/06/25 04:45:11;;;;;;;7.93;5.93;;;18.90;99.90;;;;;;4995234;28;20227;-72
2022/06/25 04:47:38;;;;;;;10.53;6.13;;;19.00;99.90;;;;;;4979199;28;20299;-71
2022/06/25 04:50:06;;;;;;;11.90;7.07;;;19.00;99.90;;;;;;4996144;28;20204;-73
2022/06/25 04:52:33;;;;;;;11.67;7.10;;;19.10;99.90;;;;;;4995789;28;20643;-72
2022/06/25 04:55:00;;;;;;;11.70;7.97;;;19.20;99.90;;;;;;4995872;28;20200;-73
2022/06/25 04:57:27;;;;;;;14.93;8.43;;;19.20;99.90;;;;;;5013372;28;20219;-73
2022/06/25 04:59:54;;;;;;;12.37;8.13;;;19.20;99.90;;;;;;4995015;28;20248;-73
2022/06/25 05:02:21;;;;;;;15.73;8.33;;;19.20;99.90;;;;;;4995567;28;20588;-73
2022/06/25 05:04:48;;;;;;;13.40;7.47;;;19.30;99.90;;;;;;4995293;28;20712;-72
2022/06/25 05:07:15;;;;;;;12.23;7.50;;;19.40;99.90;;;;;;4995126;28;20228;-72
2022/06/25 05:09:42;;;;;;;10.33;6.93;;;19.50;99.90;;;;;;4995093;28;20207;-70
2022/06/25 05:12:09;;;;;;;10.63;6.70;;;19.50;99.90;;;;;;4995446;28;20569;-72
2022/06/25 05:14:36;;;;;;;10.17;6.27;;;19.60;99.90;;;;;;4995028;28;20642;-72
2022/06/25 05:17:03;;;;;;;10.27;5.90;;;19.70;99.90;;;;;;4995100;28;20208;-71
2022/06/25 05:19:30;;;;;;;9.27;6.03;;;19.80;99.90;;;;;;4995206;28;20311;-72
2022/06/25 05:21:57;;;;;;;12.27;6.13;;;19.80;99.90;;;;;;4995267;28;20299;-72
2022/06/25 05:24:23;;;;;;;8.47;5.87;;;19.90;99.90;;;;;;4994847;28;20286;-72
2022/06/25 05:26:50;;;;;;;8.23;5.87;;;20.00;99.90;;;;;;4995641;28;20541;-72
2022/06/25 05:29:17;;;;;;;11.10;6.33;;;20.20;99.90;;;;;;5012453;28;20290;-72
2022/06/25 05:31:44;;;;;;;9.17;6.03;;;20.20;99.90;;;;;;4994874;28;20562;-72
2022/06/25 05:34:11;;;;;;;9.57;5.73;;;20.40;99.90;;;;;;4995257;28;20203;-74
2022/06/25 05:36:38;;;;;;;10.30;5.57;;;20.50;99.90;;;;;;4978712;28;20200;-72
2022/06/25 05:39:05;;;;;;;7.40;5.60;;;20.60;99.90;;;;;;4995082;28;20208;-72
2022/06/25 05:41:32;;;;;;;9.73;5.33;;;20.60;99.90;;;;;;4995361;28;20206;-72
2022/06/25 05:44:05;;;;;;;10.60;5.67;;;20.70;99.90;;;;;;5012389;28;20220;-71
2022/06/25 05:46:32;;;;;;;6.67;5.47;;;20.80;99.90;;;;;;4996391;28;20227;-72
2022/06/25 05:48:59;;;;;;;12.83;5.87;;;20.90;99.90;;;;;;4998576;28;20233;-74
2022/06/25 05:51:26;;;;;;;9.00;5.77;;;21.00;99.90;;;;;;4998538;28;20210;-74
2022/06/25 05:53:53;;;;;;;8.87;5.60;;;21.10;99.90;;;;;;4997976;28;20239;-63
2022/06/25 05:56:20;;;;;;;7.83;5.20;;;21.20;99.90;;;;;;4998213;28;20629;-63
2022/06/25 05:58:46;;;;;;;8.27;5.10;;;21.40;99.90;;;;;;4998009;28;20302;-65
2022/06/25 06:01:13;;;;;;;7.47;5.20;;;21.50;99.90;;;;;;4998196;28;20238;-64
2022/06/25 06:03:40;;;;;;;7.53;4.80;;;21.60;99.90;;;;;;4997902;28;20283;-64
2022/06/25 06:06:08;;;;;;;5.10;4.60;;;21.60;99.90;;;;;;5015719;28;20202;-64
2022/06/25 06:08:35;;;;;;;5.93;4.90;;;21.70;99.90;;;;;;4998228;28;20633;-72
2022/06/25 06:11:03;;;;;;;6.63;4.80;;;21.90;99.90;;;;;;4997865;28;20228;-73
2022/06/25 06:13:29;;;;;;;7.60;4.87;;;21.90;99.90;;;;;;5015607;28;20609;-73
2022/06/25 06:15:56;;;;;;;5.93;4.80;;;22.10;99.90;;;;;;5015403;28;20299;-74
2022/06/25 06:18:23;;;;;;;7.70;4.57;;;22.10;99.90;;;;;;4997806;28;20659;-76
2022/06/25 06:20:53;;;;;;;6.40;4.80;;;22.20;99.90;;;;;;4998049;28;20559;-76
2022/06/25 06:23:20;;;;;;;5.00;4.40;;;22.40;99.90;;;;;;5015807;28;20196;-75
2022/06/25 06:25:47;;;;;;;6.57;4.70;;;22.50;99.90;;;;;;5002342;28;20232;-75
2022/06/25 06:28:14;;;;;;;7.83;4.63;;;22.50;99.90;;;;;;4998312;28;20263;-74
2022/06/25 06:30:41;;;;;;;7.50;4.80;;;22.60;99.90;;;;;;4998676;28;20214;-74
2022/06/25 06:33:09;;;;;;;6.45;4.50;;;22.70;99.90;;;;;;5015914;28;20200;-74
2022/06/25 06:35:43;;;;;;;6.32;4.72;;;22.70;99.90;;;;;;4982365;28;20206;-76
2022/06/25 06:38:16;;;;;;;5.73;4.60;;;22.80;99.90;;;;;;4982981;28;20192;-73
2022/06/25 06:40:43;;;;;;;7.18;4.45;;;22.90;99.90;;;;;;4997510;28;20310;-73
2022/06/25 06:43:10;;;;;;;5.45;4.53;;;23.00;99.90;;;;;;4997372;28;20630;-73
2022/06/25 06:45:37;;;;;;;15.57;5.20;;;23.00;99.90;;;;;;4997139;28;20300;-73
2022/06/25 06:48:05;;;;;;;7.53;4.90;;;23.10;99.90;;;;;;5015021;28;20204;-74
2022/06/25 06:50:31;;;;;;;5.37;4.60;;;23.20;99.90;;;;;;4997122;28;20736;-73
2022/06/25 06:52:58;;;;;;;5.65;4.47;;;23.20;99.90;;;;;;4997229;28;20651;-74
2022/06/25 06:55:25;;;;;;;7.60;4.90;;;23.30;99.90;;;;;;5014403;28;20521;-72
2022/06/25 06:57:57;;;;;;;6.30;4.60;;;23.50;99.90;;;;;;4996236;28;20265;-74
2022/06/25 07:00:27;;;;;;;7.70;4.97;;;23.60;99.90;;;;;;5013351;28;20653;-72
2022/06/25 07:02:54;;;;;;;6.35;4.82;;;23.70;99.90;;;;;;5012293;28;20250;-74
2022/06/25 07:05:22;;;;;;;7.13;4.72;;;23.80;99.90;;;;;;4997277;28;20216;-73
2022/06/25 07:07:49;;;;;;;5.07;4.57;;;24.00;99.90;;;;;;5014564;28;20192;-73
2022/06/25 07:10:16;;;;;;;7.90;4.90;;;24.00;99.90;;;;;;5014425;28;20227;-74
2022/06/25 07:12:48;;;;;;;5.65;4.63;;;24.10;99.90;;;;;;4997151;28;20204;-74
2022/06/25 07:15:16;;;;;;;6.43;4.53;;;24.10;99.90;;;;;;4996841;28;20211;-74
2022/06/25 07:17:43;;;;;;;5.90;4.70;;;24.10;99.90;;;;;;4997138;28;20618;-75
2022/06/25 07:20:14;;;;;;;4.97;4.47;;;24.30;99.90;;;;;;4997093;28;20303;-75
2022/06/25 07:22:44;;;;;;;4.88;4.22;;;24.30;99.90;;;;;;5014994;28;20188;-74
2022/06/25 07:25:13;;;;;;;4.90;4.30;;;24.30;99.90;;;;;;4997699;28;20192;-75
2022/06/25 07:27:42;;;;;;;8.43;4.55;;;24.40;99.90;;;;;;4997565;28;20200;-75
2022/06/25 07:30:11;;;;;;;5.90;4.60;;;24.50;99.90;;;;;;5014354;28;20181;-74
2022/06/25 07:32:38;;;;;;;6.43;4.75;;;24.50;99.90;;;;;;4997270;28;20204;-74
2022/06/25 07:35:09;;;;;;;6.55;4.68;;;24.70;99.90;;;;;;4980209;28;20283;-73
2022/06/25 07:37:41;;;;;;;4.80;4.30;;;24.70;99.90;;;;;;4996443;28;20657;-71
2022/06/25 07:40:25;;;;;;;5.95;4.25;;;24.80;99.90;;;;;;5014080;28;20546;-72
2022/06/25 07:42:53;;;;;;;6.50;4.47;;;24.80;99.90;;;;;;4996505;28;20200;-72
2022/06/25 07:45:20;;;;;;;6.60;4.47;;;25.00;99.90;;;;;;4995645;28;20299;-73
2022/06/25 07:47:47;;;;;;;5.57;4.38;;;25.10;99.90;;;;;;4996073;28;20224;-73
2022/06/25 07:53:00;;;;;;;4.78;4.10;;;25.30;99.90;;;;;;4996256;28;20201;-68
2022/06/25 07:55:27;;;;;;;5.00;4.00;;;25.40;99.90;;;;;;4995339;28;20247;-68
2022/06/25 07:57:53;;;;;;;5.60;4.40;;;25.60;99.90;;;;;;4995565;28;20192;-68
2022/06/25 08:00:20;;;;;;;6.80;4.15;;;25.60;99.90;;;;;;4995781;28;20228;-70
2022/06/25 08:02:48;;;;;;;4.90;4.07;;;25.70;99.90;;;;;;4995409;28;20334;-69
2022/06/25 08:05:16;;;;;;;4.22;3.80;;;25.80;99.90;;;;;;4995733;28;20224;-68
2022/06/25 08:07:43;;;;;;;4.13;3.70;;;25.70;99.90;;;;;;4995583;28;20200;-70
2022/06/25 08:10:10;;;;;;;4.75;3.70;;;25.70;98.20;;;;;;4995386;28;20208;-68
2022/06/25 08:12:37;;;;;;;5.22;3.63;;;25.80;99.10;;;;;;4995721;28;20193;-69
2022/06/25 08:15:05;;;;;;;4.00;3.60;;;25.80;98.20;;;;;;4995443;28;20227;-68
2022/06/25 08:17:34;;;;;;;4.18;3.78;;;25.90;97.20;;;;;;5012887;28;20188;-68
2022/06/25 08:20:01;;;;;;;4.30;3.42;;;26.00;97.70;;;;;;4996064;28;20211;-67
2022/06/25 08:22:28;;;;;;;3.83;3.42;;;26.00;97.10;;;;;;4995179;28;20204;-68
2022/06/25 08:24:56;;;;;;;4.15;3.20;;;26.10;96.60;;;;;;5013027;28;20192;-68
2022/06/25 08:27:24;;;;;;;6.20;3.28;;;26.50;94.20;;;;;;4995353;28;20196;-68
2022/06/25 08:29:51;;;;;;;4.45;3.13;;;27.20;90.80;;;;;;4995224;28;20538;-69
2022/06/25 08:32:19;;;;;;;3.78;3.10;;;28.00;88.30;;;;;;4995438;28;20684;-70
2022/06/25 08:34:45;;;;;;;4.38;3.10;;;28.40;82.20;;;;;;5012921;28;20284;-70
2022/06/25 08:37:12;;;;;;;5.70;3.10;;;29.20;80.50;;;;;;4995855;28;20300;-71
2022/06/25 08:39:39;;;;;;;3.65;2.78;;;29.40;73.10;;;;;;5013016;28;20195;-72
2022/06/25 08:42:07;;;;;;;4.93;2.92;;;29.40;72.40;;;;;;5012941;28;20596;-69
2022/06/25 08:44:34;;;;;;;4.25;3.25;;;29.50;72.10;;;;;;4995459;28;20231;-70
2022/06/25 08:47:01;;;;;;;3.85;3.10;;;29.90;71.80;;;;;;4995371;28;20266;-69
2022/06/25 08:49:33;;;;;;;3.28;2.90;;;30.50;69.20;;;;;;5013091;28;20216;-70
2022/06/25 08:52:03;;;;;;;5.45;2.78;;;30.90;69.10;;;;;;4995398;28;20298;-70
2022/06/25 08:54:31;;;;;;;3.78;3.05;;;30.90;66.30;;;;;;4995276;28;20614;-70
2022/06/25 08:56:58;;;;;;;5.30;2.88;;;31.00;64.80;;;;;;4995394;28;20227;-70
2022/06/25 08:59:28;;;;;;;5.25;3.00;;;31.30;64.90;;;;;;5012797;28;20267;-70
2022/06/25 09:01:54;;;;;;;5.03;3.10;;;31.00;63.60;;;;;;4995212;28;20711;-71
2022/06/25 09:04:21;;;;;;;4.57;2.90;;;31.30;64.00;;;;;;4994930;28;20310;-71
2022/06/25 09:07:08;;;;;;;4.50;2.85;;;31.30;63.40;;;;;;5013110;28;20210;-70
2022/06/25 09:09:35;;;;;;;6.28;3.20;;;31.70;62.80;;;;;;4995192;28;20201;-70
2022/06/25 09:12:05;;;;;;;4.53;3.10;;;31.00;61.20;;;;;;4995194;28;20196;-71
2022/06/25 09:14:35;;;;;;;4.10;3.05;;;30.60;63.00;;;;;;4995009;28;20200;-70
2022/06/25 09:17:09;;;;;;;3.28;2.97;;;30.60;61.60;;;;;;4995190;28;20387;-71
2022/06/25 09:19:41;;;;;;;4.20;2.90;;;30.80;63.10;;;;;;5012590;28;20196;-70
2022/06/25 09:22:11;;;;;;;3.92;3.00;;;31.20;63.90;;;;;;4997730;28;20262;-70
2022/06/25 09:24:43;;;;;;;4.18;3.05;;;31.30;61.00;;;;;;4998621;28;20207;-71
2022/06/25 09:27:10;;;;;;;4.72;2.90;;;31.50;60.80;;;;;;4998799;28;20200;-70
2022/06/25 09:29:48;;;;;;;3.17;2.88;;;31.70;59.90;;;;;;4998803;28;20287;-70
2022/06/25 09:32:16;;;;;;;3.58;3.00;;;32.00;60.40;;;;;;4998665;28;20232;-71
2022/06/25 09:34:44;;;;;;;3.92;3.10;;;31.80;58.30;;;;;;5016139;28;20200;-70
2022/06/25 09:37:27;;;;;;;3.85;3.10;;;31.60;59.30;;;;;;5016262;28;20184;-70
2022/06/25 09:39:55;;;;;;;5.75;3.10;;;31.90;59.20;;;;;;4998546;28;20239;-70
2022/06/25 09:42:27;;;;;;;4.45;3.00;;;32.00;58.60;;;;;;4998645;28;20613;-70
2022/06/25 09:44:58;;;;;;;3.95;2.95;;;32.00;58.20;;;;;;4998719;28;20286;-71
2022/06/25 09:47:27;;;;;;;6.22;2.92;;;32.10;59.10;;;;;;5016240;28;20657;-70
2022/06/25 09:50:04;;;;;;;3.58;3.13;;;32.10;57.90;;;;;;5016352;28;20193;-71
2022/06/25 09:52:32;;;;;;;3.78;3.30;;;32.20;58.10;;;;;;4998549;28;20680;-73
2022/06/25 09:54:59;;;;;;;3.63;3.22;;;32.20;57.00;;;;;;4998640;28;20663;-70
2022/06/25 09:57:26;;;;;;;4.03;3.10;;;32.40;57.90;;;;;;5017314;28;20618;-71
2022/06/25 09:59:58;;;;;;;5.07;3.40;;;32.70;57.40;;;;;;4998813;28;20278;-70
2022/06/25 10:02:27;;;;;;;4.40;3.28;;;32.80;57.30;;;;;;4997861;28;20229;-71
2022/06/25 10:04:59;;;;;;;3.53;3.20;;;33.20;57.20;;;;;;4998500;28;20654;-71
2022/06/25 10:10:21;;;;;;;7.35;3.42;;;33.20;55.60;;;;;;4997884;28;20291;-70
2022/06/25 10:12:49;;;;;;;3.60;3.30;;;33.00;56.60;;;;;;4998250;28;20238;-71
2022/06/25 10:15:18;;;;;;;3.70;3.33;;;33.30;56.00;;;;;;4997971;28;20283;-70
2022/06/25 10:17:47;;;;;;;3.42;3.13;;;33.30;55.50;;;;;;5015748;28;20263;-70
2022/06/25 10:20:16;;;;;;;7.47;3.45;;;33.70;56.40;;;;;;4998227;28;20645;-72
2022/06/25 10:22:45;;;;;;;4.20;3.50;;;34.10;55.00;;;;;;4998106;28;20330;-69
2022/06/25 10:25:17;;;;;;;6.35;3.58;;;34.00;53.50;;;;;;4997775;28;20200;-70
2022/06/25 10:27:50;;;;;;;4.20;2.95;;;34.00;53.90;;;;;;4997670;28;20208;-70
2022/06/25 10:30:46;;;;;;;3.85;3.10;;;34.30;53.80;;;;;;4982038;28;20188;-71
2022/06/25 10:33:22;;;;;;;4.35;3.10;;;34.60;53.10;;;;;;4997634;28;20238;-70
2022/06/25 10:35:51;;;;;;;3.30;3.00;;;34.50;51.50;;;;;;5015704;28;20238;-70
2022/06/25 10:38:21;;;;;;;3.42;3.00;;;34.60;52.00;;;;;;4997671;28;20242;-70
2022/06/25 10:40:49;;;;;;;3.10;2.80;;;35.10;51.00;;;;;;4997516;28;20208;-71
2022/06/25 10:43:47;;;;;;;3.67;3.17;;;35.00;50.00;;;;;;4997622;28;20616;-70
2022/06/25 10:46:22;;;;;;;3.38;2.85;;;35.00;49.80;;;;;;4997013;28;20374;-71
2022/06/25 10:49:07;;;;;;;2.95;2.65;;;34.70;49.40;;;;;;4997353;28;20192;-70
2022/06/25 10:51:46;;;;;;;3.95;2.92;;;35.00;49.90;;;;;;4997403;28;20302;-71
2022/06/25 10:54:24;;;;;;;3.40;2.85;;;35.00;50.20;;;;;;4997416;28;20230;-70
2022/06/25 10:56:58;;;;;;;4.93;3.10;;;35.00;49.90;;;;;;4997121;28;20196;-73
2022/06/25 10:59:34;;;;;;;5.38;3.00;;;34.80;49.60;;;;;;4997030;28;20266;-70
2022/06/25 11:02:07;;;;;;;3.67;2.72;;;34.60;49.80;;;;;;4996949;28;20230;-70
2022/06/25 11:04:35;;;;;;;7.18;2.97;;;34.80;49.30;;;;;;5014283;28;20212;-70
2022/06/25 11:07:11;;;;;;;4.75;2.78;;;35.20;49.60;;;;;;4997266;28;20197;-71
2022/06/25 11:09:39;;;;;;;2.92;2.70;;;35.20;49.60;;;;;;4996521;28;20195;-71
2022/06/25 11:12:07;;;;;;;4.13;3.10;;;35.10;47.70;;;;;;4997052;28;20254;-71
2022/06/25 11:14:34;;;;;;;3.53;3.00;;;35.10;48.00;;;;;;4997982;28;20192;-80
2022/06/25 11:17:10;;;;;;;4.78;2.90;;;35.50;48.40;;;;;;4997251;28;20306;-72
2022/06/25 11:19:41;;;;;;;3.40;3.10;;;35.30;47.70;;;;;;4998493;28;20192;-71
2022/06/25 11:22:08;;;;;;;5.90;3.17;;;35.60;47.80;;;;;;4997249;28;20302;-69
2022/06/25 11:24:35;;;;;;;2.95;2.75;;;36.10;48.40;;;;;;4996593;28;20295;-72
2022/06/25 11:29:51;;;;;;;3.35;3.05;;;36.50;47.60;;;;;;4996672;28;20196;-71
2022/06/25 11:32:24;;;;;;;4.78;3.33;;;35.70;47.00;;;;;;4996562;28;20224;-70
2022/06/25 11:34:57;;;;;;;3.33;3.00;;;34.80;48.10;;;;;;4980404;28;20294;-72
2022/06/25 11:37:25;;;;;;;4.57;2.70;;;35.30;47.80;;;;;;4996636;28;20676;-71
2022/06/25 11:39:52;;;;;;;4.28;3.20;;;35.40;47.70;;;;;;4996577;28;20293;-78
2022/06/25 11:42:20;;;;;;;3.33;3.03;;;35.90;47.50;;;;;;5013813;28;20212;-74
2022/06/25 11:44:50;;;;;;;4.28;2.67;;;36.00;47.20;;;;;;4995658;28;20192;-71
2022/06/25 11:47:22;;;;;;;4.25;2.90;;;36.20;46.70;;;;;;4996220;28;20645;-74
2022/06/25 11:49:50;;;;;;;4.60;2.90;;;36.70;45.70;;;;;;4996238;28;20203;-71
2022/06/25 11:52:19;;;;;;;3.50;2.72;;;36.30;44.40;;;;;;4996428;28;20192;-72
2022/06/25 11:54:47;;;;;;;3.28;2.90;;;36.40;45.20;;;;;;4996201;28;20291;-69
2022/06/25 11:57:27;;;;;;;3.30;3.00;;;36.40;46.00;;;;;;4996443;28;20207;-69
2022/06/25 11:59:56;;;;;;;3.53;3.20;;;36.20;45.60;;;;;;4996206;28;20204;-69
2022/06/25 12:02:23;;;;;;;4.55;3.03;;;36.00;46.00;;;;;;4995846;28;20270;-70
2022/06/25 12:04:59;;;;;;;3.72;3.25;;;36.30;45.80;;;;;;4995752;28;20651;-70
2022/06/25 12:07:28;;;;;;;4.85;3.03;;;36.40;45.00;;;;;;5013559;28;20301;-69
2022/06/25 12:10:00;;;;;;;4.93;3.03;;;36.60;46.70;;;;;;5013447;28;20203;-69
2022/06/25 12:12:28;;;;;;;5.32;3.15;;;36.70;45.60;;;;;;5013465;28;20279;-69
2022/06/25 12:15:01;;;;;;;4.47;3.42;;;36.60;45.80;;;;;;5013265;28;20192;-78
2022/06/25 12:17:34;;;;;;;5.50;3.10;;;36.60;42.50;;;;;;4995939;28;20675;-71
2022/06/25 12:20:09;;;;;;;3.42;2.83;;;36.20;45.40;;;;;;4995944;28;20204;-72
2022/06/25 12:22:51;;;;;;;4.22;3.03;;;36.20;45.80;;;;;;4995524;28;20219;-69
2022/06/25 12:25:26;;;;;;;4.93;3.00;;;35.80;45.30;;;;;;4995413;28;20676;-70
2022/06/25 12:27:54;;;;;;;3.95;2.90;;;36.20;46.10;;;;;;5013936;28;20549;-72
2022/06/25 12:30:27;;;;;;;4.60;2.80;;;36.60;44.60;;;;;;5013765;28;20184;-72
2022/06/25 12:32:57;;;;;;;4.15;2.97;;;36.90;45.20;;;;;;4995654;28;20223;-72
2022/06/25 12:35:27;;;;;;;3.33;2.95;;;36.60;44.60;;;;;;4995705;28;20203;-72
2022/06/25 12:38:08;;;;;;;5.93;3.38;;;36.40;45.80;;;;;;4996170;28;20522;-70
2022/06/25 12:40:46;;;;;;;3.25;2.95;;;36.60;45.30;;;;;;4995635;28;20658;-71
2022/06/25 12:43:15;;;;;;;3.08;2.80;;;36.90;44.40;;;;;;4995600;28;20231;-71
2022/06/25 12:45:45;;;;;;;3.03;2.83;;;36.70;43.50;;;;;;4995832;28;20559;-72
2022/06/25 12:48:12;;;;;;;3.97;3.10;;;37.10;44.10;;;;;;4995924;28;20677;-70
2022/06/25 12:50:40;;;;;;;4.32;3.00;;;37.40;44.00;;;;;;4995394;28;20338;-69
2022/06/25 12:53:13;;;;;;;4.40;3.15;;;37.50;44.10;;;;;;4995359;28;20192;-73
2022/06/25 12:55:47;;;;;;;5.00;3.30;;;37.10;44.40;;;;;;4997404;28;20254;-71
2022/06/25 12:58:15;;;;;;;3.08;2.78;;;37.10;43.90;;;;;;4999667;28;20598;-70
2022/06/25 13:00:44;;;;;;;4.40;3.13;;;37.10;43.80;;;;;;4999717;28;20291;-74
2022/06/25 13:03:15;;;;;;;4.05;2.90;;;37.40;44.50;;;;;;4998913;28;20338;-70
2022/06/25 13:05:42;;;;;;;3.97;3.08;;;37.20;43.60;;;;;;4999080;28;20697;-70
2022/06/25 13:08:09;;;;;;;3.40;2.75;;;37.10;43.50;;;;;;4999584;28;20279;-71
2022/06/25 13:10:42;;;;;;;4.03;3.20;;;37.30;42.60;;;;;;5017022;28;20535;-73